sensor_id;sensor_type;location;lat;lon;timestamp;pressure;altitude;pressure_sealevel;temperature;humidity
3796;BME280;1913;50.660;7.834;2022-12-20T00:01:16;97411.16;;;4.28;100.00
3796;BME280;1913;50.660;7.834;2022-12-20T00:03:43;97415.09;;;4.32;100.00
3796;BME280;1913;50.660;7.834;2022-12-20T00:06:10;97411.16;;;4.28;100.00
3796;BME280;1913;50.660;7.834;2022-12-20T00:08:36;97406.94;;;4.27;100.00
3796;BME280;1913;50.660;7.834;2022-12-20T00:11:04;97406.28;;;4.25;100.00
3796;BME280;1913;50.660;7.834;2022-12-20T00:13:30;97398.94;;;4.20;100.00
3796;BME280;1913;50.660;7.834;2022-12-20T00:16:13;97383.34;;;4.20;100.00
3796;BME280;1913;50.660;7.834;2022-12-20T00:18:41;97386.91;;;4.19;100.00
3796;BME280;1913;50.660;7.834;2022-12-20T00:21:09;97400.22;;;4.16;100.00
3796;BME280;1913;50.660;7.834;2022-12-20T00:23:35;97391.41;;;4.09;100.00
3796;BME280;1913;50.660;7.834;2022-12-20T00:26:08;97378.25;;;4.02;100.00
3796;BME280;1913;50.660;7.834;2022-12-20T00:28:35;97373.47;;;3.98;100.00
3796;BME280;1913;50.660;7.834;2022-12-20T00:31:02;97373.34;;;3.99;100.00
3796;BME280;1913;50.660;7.834;2022-12-20T00:33:28;97377.72;;;3.99;100.00
3796;BME280;1913;50.660;7.834;2022-12-20T00:35:55;97381.94;;;4.00;100.00
3796;BME280;1913;50.660;7.834;2022-12-20T00:38:22;97381.84;;;4.10;100.00
3796;BME280;1913;50.660;7.834;2022-12-20T00:41:01;97377.75;;;4.07;100.00
3796;BME280;1913;50.660;7.834;2022-12-20T00:43:27;97371.56;;;4.00;100.00
3796;BME280;1913;50.660;7.834;2022-12-20T00:45:53;97370.56;;;3.93;100.00
3796;BME280;1913;50.660;7.834;2022-12-20T00:48:19;97371.03;;;3.88;100.00
3796;BME280;1913;50.660;7.834;2022-12-20T00:50:45;97366.28;;;3.83;100.00
3796;BME280;1913;50.660;7.834;2022-12-20T00:53:10;97369.53;;;3.86;100.00
3796;BME280;1913;50.660;7.834;2022-12-20T00:55:44;97362.56;;;3.86;100.00
3796;BME280;1913;50.660;7.834;2022-12-20T00:58:10;97363.38;;;3.95;100.00
3796;BME280;1913;50.660;7.834;2022-12-20T01:00:37;97357.88;;;3.98;100.00
3796;BME280;1913;50.660;7.834;2022-12-20T01:03:05;97355.97;;;4.08;100.00
3796;BME280;1913;50.660;7.834;2022-12-20T01:05:31;97341.03;;;4.10;100.00
3796;BME280;1913;50.660;7.834;2022-12-20T01:07:58;97347.88;;;4.11;100.00
3796;BME280;1913;50.660;7.834;2022-12-20T01:10:26;97335.34;;;4.15;100.00
3796;BME280;1913;50.660;7.834;2022-12-20T01:12:52;97336.53;;;4.20;100.00
3796;BME280;1913;50.660;7.834;2022-12-20T01:15:18;97336.34;;;4.14;100.00
3796;BME280;1913;50.660;7.834;2022-12-20T01:17:47;97336.66;;;4.11;100.00
3796;BME280;1913;50.660;7.834;2022-12-20T01:20:13;97339.03;;;3.96;100.00
3796;BME280;1913;50.660;7.834;2022-12-20T01:22:39;97331.19;;;3.88;100.00
3796;BME280;1913;50.660;7.834;2022-12-20T01:25:05;97341.94;;;3.84;100.00
3796;BME280;1913;50.660;7.834;2022-12-20T01:27:31;97340.75;;;3.79;100.00
3796;BME280;1913;50.660;7.834;2022-12-20T01:29:56;97334.44;;;3.81;100.00
3796;BME280;1913;50.660;7.834;2022-12-20T01:32:22;97329.19;;;3.73;100.00
3796;BME280;1913;50.660;7.834;2022-12-20T01:34:48;97312.13;;;3.71;100.00
3796;BME280;1913;50.660;7.834;2022-12-20T01:37:13;97307.44;;;3.74;100.00
3796;BME280;1913;50.660;7.834;2022-12-20T01:39:39;97316.03;;;3.75;100.00
3796;BME280;1913;50.660;7.834;2022-12-20T01:42:04;97324.16;;;3.80;100.00
3796;BME280;1913;50.660;7.834;2022-12-20T01:46:56;97331.34;;;3.78;100.00
3796;BME280;1913;50.660;7.834;2022-12-20T01:49:30;97328.88;;;3.76;100.00
3796;BME280;1913;50.660;7.834;2022-12-20T01:52:03;97326.28;;;3.76;100.00
3796;BME280;1913;50.660;7.834;2022-12-20T01:55:02;97326.00;;;3.88;100.00
3796;BME280;1913;50.660;7.834;2022-12-20T01:57:36;97328.13;;;3.92;100.00
3796;BME280;1913;50.660;7.834;2022-12-20T02:00:05;97319.38;;;4.01;100.00
3796;BME280;1913;50.660;7.834;2022-12-20T02:02:32;97316.66;;;4.11;100.00
3796;BME280;1913;50.660;7.834;2022-12-20T02:05:01;97316.34;;;4.22;100.00
3796;BME280;1913;50.660;7.834;2022-12-20T02:07:29;97312.81;;;4.31;100.00
3796;BME280;1913;50.660;7.834;2022-12-20T02:09:57;97305.81;;;4.40;100.00
3796;BME280;1913;50.660;7.834;2022-12-20T02:12:28;97296.56;;;4.46;100.00
3796;BME280;1913;50.660;7.834;2022-12-20T02:15:25;97285.66;;;4.50;100.00
3796;BME280;1913;50.660;7.834;2022-12-20T02:18:19;97293.97;;;4.54;100.00
3796;BME280;1913;50.660;7.834;2022-12-20T02:24:34;97274.78;;;4.63;100.00
3796;BME280;1913;50.660;7.834;2022-12-20T02:27:22;97280.94;;;4.62;100.00
3796;BME280;1913;50.660;7.834;2022-12-20T02:32:38;97282.59;;;4.71;100.00
3796;BME280;1913;50.660;7.834;2022-12-20T02:35:07;97285.19;;;4.71;100.00
3796;BME280;1913;50.660;7.834;2022-12-20T02:37:33;97283.41;;;4.72;100.00
3796;BME280;1913;50.660;7.834;2022-12-20T02:40:01;97277.53;;;4.78;100.00
3796;BME280;1913;50.660;7.834;2022-12-20T02:42:32;97282.56;;;4.79;100.00
3796;BME280;1913;50.660;7.834;2022-12-20T02:45:04;97280.94;;;4.87;100.00
3796;BME280;1913;50.660;7.834;2022-12-20T02:48:05;97278.19;;;4.88;100.00
3796;BME280;1913;50.660;7.834;2022-12-20T02:50:45;97284.22;;;4.89;100.00
3796;BME280;1913;50.660;7.834;2022-12-20T02:53:12;97280.97;;;4.95;100.00
3796;BME280;1913;50.660;7.834;2022-12-20T02:55:56;97286.66;;;4.98;100.00
3796;BME280;1913;50.660;7.834;2022-12-20T02:58:29;97291.50;;;5.01;100.00
3796;BME280;1913;50.660;7.834;2022-12-20T03:00:57;97291.34;;;5.03;100.00
3796;BME280;1913;50.660;7.834;2022-12-20T03:03:31;97283.38;;;5.04;100.00
3796;BME280;1913;50.660;7.834;2022-12-20T03:05:58;97278.31;;;5.11;100.00
3796;BME280;1913;50.660;7.834;2022-12-20T03:08:23;97285.63;;;5.16;100.00
3796;BME280;1913;50.660;7.834;2022-12-20T03:10:51;97286.09;;;5.19;100.00
3796;BME280;1913;50.660;7.834;2022-12-20T03:13:17;97296.19;;;5.22;100.00
3796;BME280;1913;50.660;7.834;2022-12-20T03:15:43;97307.28;;;5.24;100.00
3796;BME280;1913;50.660;7.834;2022-12-20T03:18:09;97304.97;;;5.29;100.00
3796;BME280;1913;50.660;7.834;2022-12-20T03:20:37;97309.22;;;5.31;100.00
3796;BME280;1913;50.660;7.834;2022-12-20T03:23:06;97315.41;;;5.29;100.00
3796;BME280;1913;50.660;7.834;2022-12-20T03:25:37;97308.75;;;5.27;100.00
3796;BME280;1913;50.660;7.834;2022-12-20T03:28:03;97306.31;;;5.17;100.00
3796;BME280;1913;50.660;7.834;2022-12-20T03:30:29;97296.88;;;5.00;100.00
3796;BME280;1913;50.660;7.834;2022-12-20T03:32:55;97284.38;;;4.95;100.00
3796;BME280;1913;50.660;7.834;2022-12-20T03:35:23;97286.16;;;4.87;100.00
3796;BME280;1913;50.660;7.834;2022-12-20T03:37:51;97280.47;;;4.83;100.00
3796;BME280;1913;50.660;7.834;2022-12-20T03:40:20;97290.25;;;4.81;100.00
3796;BME280;1913;50.660;7.834;2022-12-20T03:42:45;97277.53;;;4.78;100.00
3796;BME280;1913;50.660;7.834;2022-12-20T03:45:11;97272.84;;;4.73;100.00
3796;BME280;1913;50.660;7.834;2022-12-20T03:47:39;97264.19;;;4.73;100.00
3796;BME280;1913;50.660;7.834;2022-12-20T03:50:06;97276.09;;;4.67;100.00
3796;BME280;1913;50.660;7.834;2022-12-20T03:52:34;97271.19;;;4.64;100.00
3796;BME280;1913;50.660;7.834;2022-12-20T03:55:03;97262.09;;;4.60;100.00
3796;BME280;1913;50.660;7.834;2022-12-20T03:57:29;97272.16;;;4.55;100.00
3796;BME280;1913;50.660;7.834;2022-12-20T03:59:54;97277.22;;;4.56;100.00
3796;BME280;1913;50.660;7.834;2022-12-20T04:02:20;97280.16;;;4.53;100.00
3796;BME280;1913;50.660;7.834;2022-12-20T04:04:47;97266.00;;;4.56;100.00
3796;BME280;1913;50.660;7.834;2022-12-20T04:07:13;97282.06;;;4.51;100.00
3796;BME280;1913;50.660;7.834;2022-12-20T04:09:41;97260.94;;;4.54;100.00
3796;BME280;1913;50.660;7.834;2022-12-20T04:12:07;97269.41;;;4.48;100.00
3796;BME280;1913;50.660;7.834;2022-12-20T04:14:33;97267.94;;;4.46;100.00
3796;BME280;1913;50.660;7.834;2022-12-20T04:17:01;97266.97;;;4.47;100.00
3796;BME280;1913;50.660;7.834;2022-12-20T04:19:29;97273.78;;;4.48;100.00
3796;BME280;1913;50.660;7.834;2022-12-20T04:21:56;97278.19;;;4.47;100.00
3796;BME280;1913;50.660;7.834;2022-12-20T04:24:23;97286.31;;;4.44;100.00
3796;BME280;1913;50.660;7.834;2022-12-20T04:26:48;97286.16;;;4.46;100.00
3796;BME280;1913;50.660;7.834;2022-12-20T04:29:14;97282.75;;;4.45;100.00
3796;BME280;1913;50.660;7.834;2022-12-20T04:31:40;97265.47;;;4.44;100.00
3796;BME280;1913;50.660;7.834;2022-12-20T04:34:06;97253.47;;;4.43;100.00
3796;BME280;1913;50.660;7.834;2022-12-20T04:36:32;97249.56;;;4.47;100.00
3796;BME280;1913;50.660;7.834;2022-12-20T04:38:58;97256.72;;;4.45;100.00
3796;BME280;1913;50.660;7.834;2022-12-20T04:41:24;97253.31;;;4.53;100.00
3796;BME280;1913;50.660;7.834;2022-12-20T04:43:54;97258.16;;;4.48;100.00
3796;BME280;1913;50.660;7.834;2022-12-20T04:46:23;97259.00;;;4.48;100.00
3796;BME280;1913;50.660;7.834;2022-12-20T04:48:49;97252.81;;;4.49;100.00
3796;BME280;1913;50.660;7.834;2022-12-20T04:51:15;97257.22;;;4.49;100.00
3796;BME280;1913;50.660;7.834;2022-12-20T04:53:42;97259.66;;;4.42;100.00
3796;BME280;1913;50.660;7.834;2022-12-20T04:56:23;97256.38;;;4.40;100.00
3796;BME280;1913;50.660;7.834;2022-12-20T04:58:51;97247.28;;;4.36;100.00
3796;BME280;1913;50.660;7.834;2022-12-20T05:01:17;97248.75;;;4.30;100.00
3796;BME280;1913;50.660;7.834;2022-12-20T05:03:44;97260.91;;;4.30;100.00
3796;BME280;1913;50.660;7.834;2022-12-20T05:06:13;97264.69;;;4.27;100.00
3796;BME280;1913;50.660;7.834;2022-12-20T05:08:42;97248.41;;;4.25;100.00
3796;BME280;1913;50.660;7.834;2022-12-20T05:11:08;97240.28;;;4.20;100.00
3796;BME280;1913;50.660;7.834;2022-12-20T05:13:37;97229.84;;;4.12;100.00
3796;BME280;1913;50.660;7.834;2022-12-20T05:16:05;97237.50;;;4.14;100.00
3796;BME280;1913;50.660;7.834;2022-12-20T05:18:31;97244.50;;;4.13;100.00
3796;BME280;1913;50.660;7.834;2022-12-20T05:20:59;97224.97;;;4.09;100.00
3796;BME280;1913;50.660;7.834;2022-12-20T05:23:46;97229.34;;;4.00;100.00
3796;BME280;1913;50.660;7.834;2022-12-20T05:26:33;97232.09;;;3.91;100.00
3796;BME280;1913;50.660;7.834;2022-12-20T05:29:00;97223.97;;;3.86;100.00
3796;BME280;1913;50.660;7.834;2022-12-20T05:31:26;97218.91;;;3.84;100.00
3796;BME280;1913;50.660;7.834;2022-12-20T05:33:55;97218.41;;;3.80;100.00
3796;BME280;1913;50.660;7.834;2022-12-20T05:36:23;97212.41;;;3.80;100.00
3796;BME280;1913;50.660;7.834;2022-12-20T05:38:52;97209.66;;;3.81;100.00
3796;BME280;1913;50.660;7.834;2022-12-20T05:41:20;97209.97;;;3.78;100.00
3796;BME280;1913;50.660;7.834;2022-12-20T05:43:46;97207.88;;;3.82;100.00
3796;BME280;1913;50.660;7.834;2022-12-20T05:46:20;97209.16;;;3.86;100.00
3796;BME280;1913;50.660;7.834;2022-12-20T05:48:48;97207.06;;;3.90;100.00
3796;BME280;1913;50.660;7.834;2022-12-20T05:51:20;97205.13;;;3.92;100.00
3796;BME280;1913;50.660;7.834;2022-12-20T05:53:45;97199.13;;;3.99;100.00
3796;BME280;1913;50.660;7.834;2022-12-20T05:56:11;97207.88;;;3.98;100.00
3796;BME280;1913;50.660;7.834;2022-12-20T05:58:37;97204.00;;;4.02;100.00
3796;BME280;1913;50.660;7.834;2022-12-20T06:01:05;97208.22;;;3.95;100.00
3796;BME280;1913;50.660;7.834;2022-12-20T06:03:31;97203.16;;;3.94;100.00
3796;BME280;1913;50.660;7.834;2022-12-20T06:06:00;97208.22;;;3.95;100.00
3796;BME280;1913;50.660;7.834;2022-12-20T06:08:26;97195.72;;;3.99;100.00
3796;BME280;1913;50.660;7.834;2022-12-20T06:10:52;97202.38;;;4.01;100.00
3796;BME280;1913;50.660;7.834;2022-12-20T06:13:18;97194.88;;;3.98;100.00
3796;BME280;1913;50.660;7.834;2022-12-20T06:15:43;97203.97;;;3.94;100.00
3796;BME280;1913;50.660;7.834;2022-12-20T06:18:09;97196.66;;;3.90;100.00
3796;BME280;1913;50.660;7.834;2022-12-20T06:20:35;97201.19;;;3.88;100.00
3796;BME280;1913;50.660;7.834;2022-12-20T06:23:02;97209.97;;;3.87;100.00
3796;BME280;1913;50.660;7.834;2022-12-20T06:25:28;97218.44;;;3.89;100.00
3796;BME280;1913;50.660;7.834;2022-12-20T06:27:54;97225.94;;;3.92;100.00
3796;BME280;1913;50.660;7.834;2022-12-20T06:30:20;97221.53;;;3.92;100.00
3796;BME280;1913;50.660;7.834;2022-12-20T06:32:49;97223.66;;;3.97;100.00
3796;BME280;1913;50.660;7.834;2022-12-20T06:35:15;97213.56;;;4.02;100.00
3796;BME280;1913;50.660;7.834;2022-12-20T06:37:41;97215.88;;;4.13;100.00
3796;BME280;1913;50.660;7.834;2022-12-20T06:40:11;97212.44;;;4.13;100.00
3796;BME280;1913;50.660;7.834;2022-12-20T06:42:45;97205.97;;;4.17;100.00
3796;BME280;1913;50.660;7.834;2022-12-20T06:45:11;97197.19;;;4.18;100.00
3796;BME280;1913;50.660;7.834;2022-12-20T06:47:40;97189.69;;;4.23;100.00
3796;BME280;1913;50.660;7.834;2022-12-20T06:50:09;97195.06;;;4.21;100.00
3796;BME280;1913;50.660;7.834;2022-12-20T06:52:37;97189.56;;;4.24;100.00
3796;BME280;1913;50.660;7.834;2022-12-20T06:55:05;97185.00;;;4.26;100.00
3796;BME280;1913;50.660;7.834;2022-12-20T06:57:31;97188.56;;;4.33;100.00
3796;BME280;1913;50.660;7.834;2022-12-20T06:59:57;97185.00;;;4.35;100.00
3796;BME280;1913;50.660;7.834;2022-12-20T07:02:23;97177.84;;;4.45;100.00
3796;BME280;1913;50.660;7.834;2022-12-20T07:04:51;97179.63;;;4.44;100.00
3796;BME280;1913;50.660;7.834;2022-12-20T07:07:19;97181.91;;;4.47;100.00
3796;BME280;1913;50.660;7.834;2022-12-20T07:09:44;97166.28;;;4.47;100.00
3796;BME280;1913;50.660;7.834;2022-12-20T07:12:10;97173.78;;;4.42;100.00
3796;BME280;1913;50.660;7.834;2022-12-20T07:14:36;97180.28;;;4.46;100.00
3796;BME280;1913;50.660;7.834;2022-12-20T07:17:04;97158.00;;;4.52;100.00
3796;BME280;1913;50.660;7.834;2022-12-20T07:19:32;97156.84;;;4.54;100.00
3796;BME280;1913;50.660;7.834;2022-12-20T07:22:01;97169.53;;;4.49;100.00
3796;BME280;1913;50.660;7.834;2022-12-20T07:24:27;97162.72;;;4.48;100.00
3796;BME280;1913;50.660;7.834;2022-12-20T07:26:53;97151.97;;;4.51;100.00
3796;BME280;1913;50.660;7.834;2022-12-20T07:29:19;97155.41;;;4.52;100.00
3796;BME280;1913;50.660;7.834;2022-12-20T07:31:45;97155.56;;;4.50;100.00
3796;BME280;1913;50.660;7.834;2022-12-20T07:34:10;97158.81;;;4.52;100.00
3796;BME280;1913;50.660;7.834;2022-12-20T07:36:36;97158.97;;;4.51;100.00
3796;BME280;1913;50.660;7.834;2022-12-20T07:39:04;97162.84;;;4.55;100.00
3796;BME280;1913;50.660;7.834;2022-12-20T07:41:30;97150.81;;;4.62;100.00
3796;BME280;1913;50.660;7.834;2022-12-20T07:43:56;97142.19;;;4.62;100.00
3796;BME280;1913;50.660;7.834;2022-12-20T07:46:23;97136.66;;;4.65;100.00
3796;BME280;1913;50.660;7.834;2022-12-20T07:48:49;97134.06;;;4.65;100.00
3796;BME280;1913;50.660;7.834;2022-12-20T07:51:22;97137.13;;;4.68;100.00
3796;BME280;1913;50.660;7.834;2022-12-20T07:56:28;97123.94;;;4.78;100.00
3796;BME280;1913;50.660;7.834;2022-12-20T07:58:58;97124.25;;;4.83;100.00
3796;BME280;1913;50.660;7.834;2022-12-20T08:01:26;97120.31;;;4.95;100.00
3796;BME280;1913;50.660;7.834;2022-12-20T08:04:00;97129.56;;;4.98;100.00
3796;BME280;1913;50.660;7.834;2022-12-20T08:06:29;97124.16;;;5.08;100.00
3796;BME280;1913;50.660;7.834;2022-12-20T08:09:03;97120.69;;;5.15;100.00
3796;BME280;1913;50.660;7.834;2022-12-20T08:11:35;97126.53;;;5.25;100.00
3796;BME280;1913;50.660;7.834;2022-12-20T08:14:03;97121.63;;;5.31;100.00
3796;BME280;1913;50.660;7.834;2022-12-20T08:16:31;97132.19;;;5.37;100.00
3796;BME280;1913;50.660;7.834;2022-12-20T08:19:05;97124.47;;;5.44;100.00
3796;BME280;1913;50.660;7.834;2022-12-20T08:21:33;97133.47;;;5.41;100.00
3796;BME280;1913;50.660;7.834;2022-12-20T08:24:02;97135.41;;;5.39;100.00
3796;BME280;1913;50.660;7.834;2022-12-20T08:26:28;97138.66;;;5.41;100.00
3796;BME280;1913;50.660;7.834;2022-12-20T08:28:55;97147.13;;;5.43;100.00
3796;BME280;1913;50.660;7.834;2022-12-20T08:31:21;97127.72;;;5.46;100.00
3796;BME280;1913;50.660;7.834;2022-12-20T08:33:47;97123.78;;;5.50;100.00
3796;BME280;1913;50.660;7.834;2022-12-20T08:36:13;97130.72;;;5.66;100.00
3796;BME280;1913;50.660;7.834;2022-12-20T08:38:39;97129.41;;;5.62;100.00
3796;BME280;1913;50.660;7.834;2022-12-20T08:41:12;97117.97;;;5.71;100.00
3796;BME280;1913;50.660;7.834;2022-12-20T08:43:39;97115.53;;;5.69;100.00
3796;BME280;1913;50.660;7.834;2022-12-20T08:46:07;97115.63;;;5.76;100.00
3796;BME280;1913;50.660;7.834;2022-12-20T08:48:34;97108.28;;;5.80;100.00
3796;BME280;1913;50.660;7.834;2022-12-20T08:51:02;97114.25;;;5.88;100.00
3796;BME280;1913;50.660;7.834;2022-12-20T08:53:29;97111.47;;;5.90;100.00
3796;BME280;1913;50.660;7.834;2022-12-20T08:58:33;97111.81;;;5.87;100.00
3796;BME280;1913;50.660;7.834;2022-12-20T09:01:00;97110.03;;;5.87;100.00
3796;BME280;1913;50.660;7.834;2022-12-20T09:03:31;97105.22;;;5.76;100.00
3796;BME280;1913;50.660;7.834;2022-12-20T09:06:04;97107.00;;;5.75;100.00
3796;BME280;1913;50.660;7.834;2022-12-20T09:08:32;97109.63;;;5.75;100.00
3796;BME280;1913;50.660;7.834;2022-12-20T09:11:05;97103.31;;;5.70;100.00
3796;BME280;1913;50.660;7.834;2022-12-20T09:13:34;97099.59;;;5.64;100.00
3796;BME280;1913;50.660;7.834;2022-12-20T09:16:05;97111.13;;;5.70;100.00
3796;BME280;1913;50.660;7.834;2022-12-20T09:18:31;97115.88;;;5.66;100.00
3796;BME280;1913;50.660;7.834;2022-12-20T09:21:01;97111.75;;;5.72;100.00
3796;BME280;1913;50.660;7.834;2022-12-20T09:23:32;97111.59;;;5.73;100.00
3796;BME280;1913;50.660;7.834;2022-12-20T09:26:05;97104.72;;;5.81;100.00
3796;BME280;1913;50.660;7.834;2022-12-20T09:28:32;97106.13;;;5.83;100.00
3796;BME280;1913;50.660;7.834;2022-12-20T09:31:09;97117.22;;;5.85;100.00
3796;BME280;1913;50.660;7.834;2022-12-20T09:33:38;97110.81;;;5.96;100.00
3796;BME280;1913;50.660;7.834;2022-12-20T09:36:15;97105.63;;;5.88;100.00
3796;BME280;1913;50.660;7.834;2022-12-20T09:38:42;97101.75;;;5.84;100.00
3796;BME280;1913;50.660;7.834;2022-12-20T09:41:36;97108.00;;;5.74;100.00
3796;BME280;1913;50.660;7.834;2022-12-20T09:46:39;97120.56;;;5.71;100.00
3796;BME280;1913;50.660;7.834;2022-12-20T09:49:15;97112.56;;;5.72;100.00
3796;BME280;1913;50.660;7.834;2022-12-20T09:52:11;97109.00;;;5.73;100.00
3796;BME280;1913;50.660;7.834;2022-12-20T10:00:13;97111.53;;;5.82;100.00
3796;BME280;1913;50.660;7.834;2022-12-20T10:02:39;97097.13;;;5.94;100.00
3796;BME280;1913;50.660;7.834;2022-12-20T10:05:13;97090.22;;;6.01;100.00
3796;BME280;1913;50.660;7.834;2022-12-20T10:10:34;97099.59;;;6.10;100.00
3796;BME280;1913;50.660;7.834;2022-12-20T10:16:33;97092.25;;;6.14;100.00
3796;BME280;1913;50.660;7.834;2022-12-20T10:19:31;97098.25;;;6.14;100.00
3796;BME280;1913;50.660;7.834;2022-12-20T10:22:08;97086.66;;;6.17;100.00
3796;BME280;1913;50.660;7.834;2022-12-20T10:24:36;97084.88;;;6.17;100.00
3796;BME280;1913;50.660;7.834;2022-12-20T10:27:18;97088.56;;;6.23;100.00
3796;BME280;1913;50.660;7.834;2022-12-20T10:29:45;97085.44;;;6.28;100.00
3796;BME280;1913;50.660;7.834;2022-12-20T10:32:22;97075.44;;;6.31;100.00
3796;BME280;1913;50.660;7.834;2022-12-20T10:35:15;97080.13;;;6.36;100.00
3796;BME280;1913;50.660;7.834;2022-12-20T10:40:38;97091.47;;;6.43;100.00
3796;BME280;1913;50.660;7.834;2022-12-20T10:43:05;97081.50;;;6.46;100.00
3796;BME280;1913;50.660;7.834;2022-12-20T10:45:44;97089.16;;;6.48;100.00
3796;BME280;1913;50.660;7.834;2022-12-20T10:48:39;97074.31;;;6.63;100.00
3796;BME280;1913;50.660;7.834;2022-12-20T10:53:48;97064.41;;;6.74;100.00
3796;BME280;1913;50.660;7.834;2022-12-20T10:56:19;97064.50;;;6.80;100.00
3796;BME280;1913;50.660;7.834;2022-12-20T10:59:02;97060.88;;;6.81;100.00
3796;BME280;1913;50.660;7.834;2022-12-20T11:01:48;97060.53;;;6.84;100.00
3796;BME280;1913;50.660;7.834;2022-12-20T11:04:32;97060.59;;;6.91;100.00
3796;BME280;1913;50.660;7.834;2022-12-20T11:07:01;97059.41;;;6.93;100.00
3796;BME280;1913;50.660;7.834;2022-12-20T11:09:32;97053.66;;;6.98;100.00
3796;BME280;1913;50.660;7.834;2022-12-20T11:14:29;97060.13;;;7.02;100.00
3796;BME280;1913;50.660;7.834;2022-12-20T11:16:58;97046.16;;;7.10;100.00
3796;BME280;1913;50.660;7.834;2022-12-20T11:53:40;96997.28;;;7.96;100.00
3796;BME280;1913;50.660;7.834;2022-12-20T11:56:17;96999.19;;;8.09;100.00
3796;BME280;1913;50.660;7.834;2022-12-20T11:59:04;96987.97;;;8.22;100.00
3796;BME280;1913;50.660;7.834;2022-12-20T12:01:39;96984.22;;;8.31;100.00
3796;BME280;1913;50.660;7.834;2022-12-20T12:04:15;96973.63;;;8.39;100.00
3796;BME280;1913;50.660;7.834;2022-12-20T12:06:52;96974.28;;;8.48;100.00
3796;BME280;1913;50.660;7.834;2022-12-20T12:09:51;96972.13;;;8.58;100.00
3796;BME280;1913;50.660;7.834;2022-12-20T12:12:37;96965.53;;;8.75;100.00
3796;BME280;1913;50.660;7.834;2022-12-20T12:17:59;96966.41;;;8.96;100.00
3796;BME280;1913;50.660;7.834;2022-12-20T12:25:53;96949.75;;;9.30;100.00
3796;BME280;1913;50.660;7.834;2022-12-20T12:28:19;96960.03;;;9.38;100.00
3796;BME280;1913;50.660;7.834;2022-12-20T12:30:58;96945.72;;;9.47;100.00
3796;BME280;1913;50.660;7.834;2022-12-20T12:33:30;96955.41;;;9.53;100.00
3796;BME280;1913;50.660;7.834;2022-12-20T12:36:11;96947.75;;;9.52;100.00
3796;BME280;1913;50.660;7.834;2022-12-20T12:47:02;96931.59;;;9.55;100.00
3796;BME280;1913;50.660;7.834;2022-12-20T12:49:31;96952.41;;;9.50;100.00
3796;BME280;1913;50.660;7.834;2022-12-20T12:51:59;96954.19;;;9.63;100.00
3796;BME280;1913;50.660;7.834;2022-12-20T12:54:37;96938.47;;;9.69;100.00
3796;BME280;1913;50.660;7.834;2022-12-20T12:57:20;96942.69;;;9.64;100.00
3796;BME280;1913;50.660;7.834;2022-12-20T12:59:47;96927.16;;;9.42;100.00
3796;BME280;1913;50.660;7.834;2022-12-20T13:04:54;96927.75;;;9.11;100.00
3796;BME280;1913;50.660;7.834;2022-12-20T13:10:53;96929.47;;;8.84;100.00
3796;BME280;1913;50.660;7.834;2022-12-20T13:17:50;96933.38;;;8.53;100.00
3796;BME280;1913;50.660;7.834;2022-12-20T13:20:25;96936.94;;;8.39;100.00
3796;BME280;1913;50.660;7.834;2022-12-20T13:25:39;96915.91;;;8.19;100.00
3796;BME280;1913;50.660;7.834;2022-12-20T13:30:44;96920.28;;;8.12;100.00
3796;BME280;1913;50.660;7.834;2022-12-20T13:33:22;96918.28;;;8.14;100.00
3796;BME280;1913;50.660;7.834;2022-12-20T13:35:59;96917.25;;;8.08;100.00
3796;BME280;1913;50.660;7.834;2022-12-20T13:39:11;96913.41;;;8.11;100.00
3796;BME280;1913;50.660;7.834;2022-12-20T13:41:44;96911.00;;;8.09;100.00
3796;BME280;1913;50.660;7.834;2022-12-20T13:46:59;96902.94;;;8.04;100.00
3796;BME280;1913;50.660;7.834;2022-12-20T13:49:31;96904.75;;;8.10;100.00
3796;BME280;1913;50.660;7.834;2022-12-20T13:52:18;96899.91;;;8.07;100.00
3796;BME280;1913;50.660;7.834;2022-12-20T13:54:47;96896.53;;;8.13;100.00
3796;BME280;1913;50.660;7.834;2022-12-20T13:57:17;96912.22;;;8.13;100.00
3796;BME280;1913;50.660;7.834;2022-12-20T13:59:52;96908.59;;;8.08;100.00
3796;BME280;1913;50.660;7.834;2022-12-20T14:02:21;96913.16;;;7.99;100.00
3796;BME280;1913;50.660;7.834;2022-12-20T14:04:58;96912.16;;;8.00;100.00
3796;BME280;1913;50.660;7.834;2022-12-20T14:07:26;96914.88;;;7.85;100.00
3796;BME280;1913;50.660;7.834;2022-12-20T14:09:59;96922.09;;;7.77;100.00
3796;BME280;1913;50.660;7.834;2022-12-20T14:12:25;96917.44;;;7.72;100.00
3796;BME280;1913;50.660;7.834;2022-12-20T14:14:51;96922.63;;;7.65;100.00
3796;BME280;1913;50.660;7.834;2022-12-20T14:17:27;96935.47;;;7.67;100.00
3796;BME280;1913;50.660;7.834;2022-12-20T14:20:14;96931.22;;;7.59;100.00
3796;BME280;1913;50.660;7.834;2022-12-20T14:22:55;96924.75;;;7.55;100.00
3796;BME280;1913;50.660;7.834;2022-12-20T14:25:42;96932.97;;;7.52;100.00
3796;BME280;1913;50.660;7.834;2022-12-20T14:30:46;96918.22;;;7.44;100.00
3796;BME280;1913;50.660;7.834;2022-12-20T14:33:36;96914.19;;;7.42;100.00
3796;BME280;1913;50.660;7.834;2022-12-20T14:38:42;96891.09;;;7.24;100.00
3796;BME280;1913;50.660;7.834;2022-12-20T14:43:59;96876.59;;;7.22;100.00
3796;BME280;1913;50.660;7.834;2022-12-20T14:46:34;96880.88;;;7.29;100.00
3796;BME280;1913;50.660;7.834;2022-12-20T14:51:49;96880.34;;;7.34;100.00
3796;BME280;1913;50.660;7.834;2022-12-20T14:54:26;96872.53;;;7.40;100.00
3796;BME280;1913;50.660;7.834;2022-12-20T14:56:53;96868.72;;;7.43;100.00
3796;BME280;1913;50.660;7.834;2022-12-20T14:59:25;96865.50;;;7.41;100.00
3796;BME280;1913;50.660;7.834;2022-12-20T15:01:56;96870.78;;;7.48;100.00
3796;BME280;1913;50.660;7.834;2022-12-20T15:04:30;96871.38;;;7.50;100.00
3796;BME280;1913;50.660;7.834;2022-12-20T15:06:57;96861.63;;;7.58;100.00
3796;BME280;1913;50.660;7.834;2022-12-20T15:09:22;96856.13;;;7.53;100.00
3796;BME280;1913;50.660;7.834;2022-12-20T15:11:51;96865.19;;;7.57;100.00
3796;BME280;1913;50.660;7.834;2022-12-20T15:14:35;96882.09;;;7.55;100.00
3796;BME280;1913;50.660;7.834;2022-12-20T15:17:12;96859.53;;;7.54;100.00
3796;BME280;1913;50.660;7.834;2022-12-20T15:19:42;96869.84;;;7.55;100.00
3796;BME280;1913;50.660;7.834;2022-12-20T15:22:14;96865.78;;;7.53;100.00
3796;BME280;1913;50.660;7.834;2022-12-20T15:24:40;96872.03;;;7.52;100.00
3796;BME280;1913;50.660;7.834;2022-12-20T15:27:14;96867.38;;;7.54;100.00
3796;BME280;1913;50.660;7.834;2022-12-20T15:29:40;96864.59;;;7.55;100.00
3796;BME280;1913;50.660;7.834;2022-12-20T15:32:16;96857.34;;;7.57;100.00
3796;BME280;1913;50.660;7.834;2022-12-20T15:34:45;96860.81;;;7.58;100.00
3796;BME280;1913;50.660;7.834;2022-12-20T15:37:14;96851.16;;;7.58;100.00